Terminal Aerodrome Forecast
Issued by NWS

Home | Current Version | Previous Version | Text Only | Print | Product List | Glossary On
Versions: 1 2 3 4 5 6 7 8 9 10 11 12
000
FTUS44 KLZK 290500
TAFHOT
TAF
KHOT 290520Z 2906/3006 17006KT P6SM SCT250 WS020/20035KT
     FM290900 24006KT P6SM SCT250 WS020/24045KT
     FM291200 28005KT P6SM SCT015 SCT250
     FM291700 34010G18KT P6SM SCT025
     FM292100 35009KT P6SM BKN025=

USA.gov is the U.S. government's official web portal to all federal, state and local government web resources and services.